createdAt,value
2023-05-06T00:00:00.172Z,182.63
2023-05-06T00:01:00.184Z,182.37
2023-05-06T00:02:00.181Z,181.92
2023-05-06T00:03:00.280Z,181.54
2023-05-06T00:04:00.312Z,181.46
2023-05-06T00:05:00.248Z,180.96
2023-05-06T00:06:00.215Z,181.19
2023-05-06T00:07:00.226Z,180.78
2023-05-06T00:08:00.303Z,181.26
2023-05-06T00:09:00.371Z,181.92
2023-05-06T00:10:00.458Z,180.39
2023-05-06T00:11:00.523Z,180.44
2023-05-06T00:12:00.595Z,180.32
2023-05-06T00:13:00.711Z,179.61
2023-05-06T00:14:00.744Z,180.63
2023-05-06T00:15:01.236Z,179.63
2023-05-06T00:16:00.919Z,179.52
2023-05-06T00:17:00.870Z,181.69
2023-05-06T00:18:00.951Z,179.29
2023-05-06T00:19:00.993Z,180.25
2023-05-06T00:20:00.941Z,181.23
2023-05-06T00:21:00.979Z,180.36
2023-05-06T00:22:00.967Z,180.32
2023-05-06T00:23:01.028Z,180.49
2023-05-06T00:24:01.019Z,180.24
2023-05-06T00:25:01.057Z,180.42
2023-05-06T00:26:01.071Z,180.20
2023-05-06T00:27:01.087Z,180.17
2023-05-06T00:28:01.114Z,180.51
2023-05-06T00:29:01.113Z,182.10
2023-05-06T00:30:01.223Z,179.95
2023-05-06T00:31:01.392Z,181.09
2023-05-06T00:32:01.262Z,179.74
2023-05-06T00:33:01.247Z,182.09
2023-05-06T00:34:01.231Z,180.88
2023-05-06T00:35:01.248Z,181.79
2023-05-06T00:36:01.287Z,180.58
2023-05-06T00:37:01.288Z,180.63
2023-05-06T00:38:01.313Z,179.57
2023-05-06T00:39:01.337Z,181.33
2023-05-06T00:40:01.368Z,179.78
2023-05-06T00:41:01.370Z,181.08
2023-05-06T00:42:01.410Z,180.50
2023-05-06T00:43:01.418Z,179.31
2023-05-06T00:44:01.438Z,181.22
2023-05-06T00:45:01.466Z,180.58
2023-05-06T00:46:01.568Z,179.85
2023-05-06T00:47:01.567Z,180.81
2023-05-06T00:48:01.658Z,180.13
2023-05-06T00:49:01.541Z,181.04
2023-05-06T00:50:01.564Z,180.24
2023-05-06T00:51:01.591Z,179.63
2023-05-06T00:52:01.635Z,180.07
2023-05-06T00:53:01.629Z,179.21
2023-05-06T00:54:01.656Z,180.36
2023-05-06T00:55:01.670Z,179.89
2023-05-06T00:56:01.687Z,178.83
2023-05-06T00:57:01.715Z,179.22
2023-05-06T00:58:01.777Z,180.70
2023-05-06T00:59:01.753Z,179.82
2023-05-06T01:00:01.773Z,180.06
2023-05-06T01:01:01.949Z,179.23
2023-05-06T01:02:01.839Z,180.44
2023-05-06T01:03:02.045Z,179.47
2023-05-06T01:04:01.894Z,178.80
2023-05-06T01:05:01.944Z,177.96
2023-05-06T01:06:01.926Z,179.64
2023-05-06T01:07:01.948Z,180.79
2023-05-06T01:08:01.978Z,180.42
2023-05-06T01:09:02.013Z,180.75
2023-05-06T01:10:02.046Z,180.95
2023-05-06T01:11:02.059Z,180.61
2023-05-06T01:12:02.087Z,181.62
2023-05-06T01:13:02.144Z,177.66
2023-05-06T01:14:02.143Z,180.83
2023-05-06T01:15:02.171Z,180.35
2023-05-06T01:16:02.187Z,179.53
2023-05-06T01:17:02.290Z,179.98
2023-05-06T01:18:02.324Z,179.84
2023-05-06T01:19:02.317Z,179.58
2023-05-06T01:20:02.292Z,178.31
2023-05-06T01:21:02.321Z,178.91
2023-05-06T01:22:02.348Z,179.71
2023-05-06T01:23:02.469Z,180.87
2023-05-06T01:24:02.394Z,181.13
2023-05-06T01:25:02.423Z,178.82
2023-05-06T01:26:02.450Z,179.93
2023-05-06T01:27:02.470Z,178.60
2023-05-06T01:28:02.511Z,177.40
2023-05-06T01:29:02.529Z,179.90
2023-05-06T01:30:02.558Z,179.73
2023-05-06T01:31:02.621Z,178.76
2023-05-06T01:32:02.597Z,179.21
2023-05-06T01:33:02.682Z,178.09
2023-05-06T01:34:02.648Z,179.25
2023-05-06T01:35:02.741Z,178.27
2023-05-06T01:36:02.706Z,179.28
2023-05-06T01:37:02.723Z,180.34
2023-05-06T01:38:02.749Z,180.09
2023-05-06T01:39:02.779Z,178.35
2023-05-06T01:40:02.811Z,179.38
2023-05-06T01:41:02.864Z,177.94
2023-05-06T01:42:02.886Z,179.18
2023-05-06T01:43:02.902Z,178.21
2023-05-06T01:44:02.912Z,178.02
2023-05-06T01:45:02.932Z,179.12
2023-05-06T01:46:02.980Z,177.55
2023-05-06T01:47:02.992Z,180.45
2023-05-06T01:48:03.097Z,178.52
2023-05-06T01:49:03.051Z,179.04
2023-05-06T01:50:03.073Z,179.28
2023-05-06T01:51:03.172Z,179.00
2023-05-06T01:52:03.136Z,179.14
2023-05-06T01:53:03.168Z,177.41
2023-05-06T01:54:03.187Z,178.43
2023-05-06T01:55:03.197Z,178.03
2023-05-06T01:56:03.220Z,179.25
2023-05-06T01:57:03.245Z,178.95
2023-05-06T01:58:03.284Z,179.96
2023-05-06T01:59:03.322Z,179.43
2023-05-06T02:00:03.333Z,179.23
2023-05-06T02:01:03.360Z,178.70
2023-05-06T02:02:03.473Z,179.09
2023-05-06T02:03:03.598Z,179.57
2023-05-06T02:04:03.592Z,178.11
2023-05-06T02:05:03.454Z,178.22
2023-05-06T02:06:03.501Z,179.28
2023-05-06T02:07:03.508Z,178.69
2023-05-06T02:08:03.524Z,178.59
2023-05-06T02:09:03.557Z,178.43
2023-05-06T02:10:03.579Z,179.46
2023-05-06T02:11:03.605Z,179.03
2023-05-06T02:12:03.653Z,178.46
2023-05-06T02:13:03.681Z,179.04
2023-05-06T02:14:03.702Z,179.12
2023-05-06T02:15:03.784Z,178.15
2023-05-06T02:16:03.790Z,178.35
2023-05-06T02:17:03.765Z,179.13
2023-05-06T02:18:03.866Z,177.51
2023-05-06T02:19:03.820Z,179.95
2023-05-06T02:20:03.838Z,178.08
2023-05-06T02:21:03.869Z,179.49
2023-05-06T02:22:03.895Z,178.39
2023-05-06T02:23:03.991Z,180.21
2023-05-06T02:24:03.997Z,177.97
2023-05-06T02:25:04.082Z,178.83
2023-05-06T02:26:04.021Z,179.24
2023-05-06T02:27:04.057Z,178.09
2023-05-06T02:28:04.081Z,177.15
2023-05-06T02:29:04.089Z,177.48
2023-05-06T02:30:04.128Z,179.89
2023-05-06T02:31:04.152Z,178.16
2023-05-06T02:32:04.171Z,179.18
2023-05-06T02:33:04.257Z,179.43
2023-05-06T02:34:04.230Z,177.89
2023-05-06T02:35:04.249Z,178.83
2023-05-06T02:36:04.290Z,178.08
2023-05-06T02:37:04.325Z,178.66
2023-05-06T02:38:04.356Z,179.36
2023-05-06T02:39:04.544Z,177.58
2023-05-06T02:40:04.414Z,179.15
2023-05-06T02:41:04.437Z,179.14
2023-05-06T02:42:04.476Z,179.21
2023-05-06T02:43:04.561Z,177.13
2023-05-06T02:44:04.529Z,177.27
2023-05-06T02:45:04.564Z,178.05
2023-05-06T02:46:04.648Z,178.91
2023-05-06T02:47:04.627Z,178.94
2023-05-06T02:48:04.689Z,177.19
2023-05-06T02:49:04.678Z,179.36
2023-05-06T02:50:04.706Z,177.53
2023-05-06T02:51:04.736Z,178.29
2023-05-06T02:52:04.771Z,178.57
2023-05-06T02:53:04.811Z,178.15
2023-05-06T02:54:04.817Z,176.26
2023-05-06T02:55:04.851Z,177.27
2023-05-06T02:56:04.888Z,177.76
2023-05-06T02:57:04.903Z,178.05
2023-05-06T02:58:04.934Z,179.72
2023-05-06T02:59:04.953Z,177.29
2023-05-06T03:00:04.990Z,178.56
2023-05-06T03:01:05.046Z,179.04
2023-05-06T03:02:05.029Z,178.95
2023-05-06T03:03:05.139Z,178.32
2023-05-06T03:04:05.145Z,179.13
2023-05-06T03:05:05.128Z,177.73
2023-05-06T03:06:05.152Z,177.46
2023-05-06T03:07:05.178Z,178.57
2023-05-06T03:08:05.204Z,176.73
2023-05-06T03:09:05.241Z,177.45
2023-05-06T03:10:05.291Z,179.15
2023-05-06T03:11:06.749Z,178.17
2023-05-06T03:12:05.430Z,176.89
2023-05-06T03:13:05.514Z,177.70
2023-05-06T03:14:05.488Z,177.88
2023-05-06T03:15:05.516Z,177.67
2023-05-06T03:16:05.630Z,177.53
2023-05-06T03:17:05.587Z,177.57
2023-05-06T03:18:05.937Z,175.87
2023-05-06T03:19:05.640Z,177.65
2023-05-06T03:20:05.669Z,178.35
2023-05-06T03:21:05.712Z,176.90
2023-05-06T03:22:05.720Z,177.55
2023-05-06T03:23:05.758Z,178.16
2023-05-06T03:24:05.789Z,177.17
2023-05-06T03:25:05.817Z,178.11
2023-05-06T03:26:05.878Z,176.39
2023-05-06T03:27:06.002Z,177.94
2023-05-06T03:28:05.908Z,178.24
2023-05-06T03:29:05.974Z,178.72
2023-05-06T03:30:05.963Z,176.88
2023-05-06T03:31:06.015Z,178.69
2023-05-06T03:32:06.025Z,177.46
2023-05-06T03:33:06.114Z,176.13
2023-05-06T03:34:06.099Z,177.31
2023-05-06T03:35:06.129Z,178.11
2023-05-06T03:36:06.191Z,178.33
2023-05-06T03:37:06.184Z,178.31
2023-05-06T03:38:06.212Z,176.76
2023-05-06T03:39:06.241Z,176.69
2023-05-06T03:40:06.283Z,177.18
2023-05-06T03:41:06.295Z,177.91
2023-05-06T03:42:07.875Z,176.16
2023-05-06T03:43:06.385Z,178.79
2023-05-06T03:44:06.340Z,177.98
2023-05-06T03:45:06.324Z,177.13
2023-05-06T03:46:06.375Z,178.81
2023-05-06T03:47:06.306Z,178.87
2023-05-06T03:48:06.374Z,178.20
2023-05-06T03:49:06.295Z,177.81
2023-05-06T03:50:06.323Z,177.92
2023-05-06T03:51:06.282Z,176.00
2023-05-06T03:52:06.284Z,178.88
2023-05-06T03:53:06.287Z,177.34
2023-05-06T03:54:06.273Z,178.65
2023-05-06T03:55:06.300Z,176.76
2023-05-06T03:56:06.278Z,176.87
2023-05-06T03:57:06.271Z,176.79
2023-05-06T03:58:06.283Z,176.93
2023-05-06T03:59:06.420Z,176.08
2023-05-06T04:00:06.282Z,177.11
2023-05-06T04:01:06.338Z,175.24
2023-05-06T04:02:06.316Z,178.29
2023-05-06T04:03:06.387Z,178.14
2023-05-06T04:04:06.328Z,177.85
2023-05-06T04:05:06.291Z,176.69
2023-05-06T04:06:06.288Z,177.22
2023-05-06T04:07:06.305Z,177.62
2023-05-06T04:08:06.299Z,176.25
2023-05-06T04:09:06.355Z,177.62
2023-05-06T04:10:06.301Z,178.02
2023-05-06T04:11:06.319Z,176.61
2023-05-06T04:12:06.328Z,179.30
2023-05-06T04:13:06.331Z,178.49
2023-05-06T04:14:06.307Z,176.74
2023-05-06T04:15:06.358Z,177.36
2023-05-06T04:16:06.320Z,177.59
2023-05-06T04:17:06.307Z,177.27
2023-05-06T04:18:06.323Z,177.22
2023-05-06T04:19:06.622Z,177.63
2023-05-06T04:20:06.313Z,179.01
2023-05-06T04:21:06.309Z,176.26
2023-05-06T04:22:06.315Z,176.59
2023-05-06T04:23:06.333Z,177.45
2023-05-06T04:24:06.326Z,177.50
2023-05-06T04:25:06.331Z,176.82
2023-05-06T04:26:06.344Z,177.88
2023-05-06T04:27:06.341Z,177.34
2023-05-06T04:28:06.367Z,176.37
2023-05-06T04:29:06.370Z,177.20
2023-05-06T04:30:06.356Z,177.54
2023-05-06T04:31:06.435Z,177.37
2023-05-06T04:32:06.404Z,175.87
2023-05-06T04:33:06.413Z,176.79
2023-05-06T04:34:06.410Z,176.23
2023-05-06T04:35:06.396Z,176.78
2023-05-06T04:36:06.404Z,178.09
2023-05-06T04:37:06.409Z,177.03
2023-05-06T04:38:06.414Z,177.36
2023-05-06T04:39:06.420Z,176.65
2023-05-06T04:40:06.427Z,176.65
2023-05-06T04:41:06.452Z,175.73
2023-05-06T04:42:06.443Z,176.19
2023-05-06T04:43:06.456Z,178.12
2023-05-06T04:44:06.447Z,178.06
2023-05-06T04:45:06.483Z,175.56
2023-05-06T04:46:06.480Z,176.36
2023-05-06T04:47:06.626Z,177.28
2023-05-06T04:48:06.501Z,177.66
2023-05-06T04:49:06.455Z,177.22
2023-05-06T04:50:06.478Z,178.22
2023-05-06T04:51:06.519Z,177.17
2023-05-06T04:52:06.486Z,178.04
2023-05-06T04:53:06.541Z,176.34
2023-05-06T04:54:06.472Z,175.58
2023-05-06T04:55:06.468Z,176.43
2023-05-06T04:56:06.451Z,177.41
2023-05-06T04:57:06.451Z,176.41
2023-05-06T04:58:06.462Z,176.94
2023-05-06T04:59:06.450Z,175.31
2023-05-06T05:00:06.516Z,177.35
2023-05-06T05:01:06.529Z,177.61
2023-05-06T05:02:06.591Z,176.83
2023-05-06T05:03:06.654Z,177.20
2023-05-06T05:04:06.548Z,177.07
2023-05-06T05:05:06.590Z,174.16
2023-05-06T05:06:06.609Z,176.16
2023-05-06T05:07:06.652Z,177.82
2023-05-06T05:08:06.697Z,174.12
2023-05-06T05:09:06.754Z,177.54
2023-05-06T05:10:06.761Z,175.00
2023-05-06T05:11:06.789Z,177.27
2023-05-06T05:12:06.830Z,177.62
2023-05-06T05:13:06.919Z,177.25
2023-05-06T05:14:06.898Z,176.63
2023-05-06T05:15:07.027Z,177.08
2023-05-06T05:16:06.954Z,176.88
2023-05-06T05:17:07.143Z,176.02
2023-05-06T05:18:07.070Z,177.83
2023-05-06T05:19:09.098Z,176.91
2023-05-06T05:20:07.110Z,176.10
2023-05-06T05:21:07.130Z,176.78
2023-05-06T05:22:07.161Z,176.19
2023-05-06T05:23:07.199Z,176.32
2023-05-06T05:24:07.232Z,176.89
2023-05-06T05:25:08.396Z,176.47
2023-05-06T05:26:07.291Z,174.22
2023-05-06T05:27:07.327Z,174.24
2023-05-06T05:28:07.408Z,177.01
2023-05-06T05:29:07.402Z,176.38
2023-05-06T05:30:07.448Z,177.32
2023-05-06T05:31:09.742Z,177.55
2023-05-06T05:32:07.472Z,176.68
2023-05-06T05:33:07.533Z,176.80
2023-05-06T05:34:07.459Z,176.79
2023-05-06T05:35:09.510Z,176.54
2023-05-06T05:36:07.456Z,176.63
2023-05-06T05:37:07.465Z,177.17
2023-05-06T05:38:08.399Z,177.18
2023-05-06T05:39:07.473Z,175.35
2023-05-06T05:40:07.484Z,175.63
2023-05-06T05:41:07.472Z,176.41
2023-05-06T05:42:07.485Z,177.43
2023-05-06T05:43:07.482Z,175.85
2023-05-06T05:44:07.477Z,176.67
2023-05-06T05:45:07.582Z,177.18
2023-05-06T05:46:07.497Z,177.47
2023-05-06T05:47:07.469Z,175.61
2023-05-06T05:48:07.558Z,175.07
2023-05-06T05:49:07.506Z,177.37
2023-05-06T05:50:07.624Z,173.97
2023-05-06T05:51:07.639Z,173.81
2023-05-06T05:52:07.620Z,174.88
2023-05-06T05:53:07.657Z,175.60
2023-05-06T05:54:07.698Z,176.80
2023-05-06T05:55:07.992Z,175.88
2023-05-06T05:56:07.744Z,176.84
2023-05-06T05:57:07.769Z,176.04
2023-05-06T05:58:07.810Z,176.73
2023-05-06T05:59:07.842Z,173.58
2023-05-06T06:00:07.870Z,173.66
2023-05-06T06:01:07.904Z,174.02
2023-05-06T06:02:07.934Z,175.94
2023-05-06T06:03:08.077Z,174.72
2023-05-06T06:04:08.121Z,175.33
2023-05-06T06:05:08.120Z,175.43
2023-05-06T06:06:08.066Z,175.53
2023-05-06T06:07:08.157Z,174.30
2023-05-06T06:08:08.133Z,174.11
2023-05-06T06:09:08.173Z,173.03
2023-05-06T06:10:08.208Z,175.21
2023-05-06T06:11:08.225Z,172.34
2023-05-06T06:12:08.265Z,174.60
2023-05-06T06:13:08.332Z,174.30
2023-05-06T06:14:08.318Z,174.64
2023-05-06T06:15:08.631Z,174.96
2023-05-06T06:16:08.424Z,173.83
2023-05-06T06:17:08.438Z,174.73
2023-05-06T06:18:08.519Z,174.35
2023-05-06T06:19:08.513Z,173.60
2023-05-06T06:20:08.551Z,173.98
2023-05-06T06:21:08.583Z,174.16
2023-05-06T06:22:08.629Z,174.93
2023-05-06T06:23:08.720Z,174.63
2023-05-06T06:24:08.734Z,174.26
2023-05-06T06:25:08.941Z,174.83
2023-05-06T06:26:10.455Z,173.91
2023-05-06T06:27:08.766Z,175.25
2023-05-06T06:28:08.776Z,175.10
2023-05-06T06:29:08.772Z,173.99
2023-05-06T06:30:08.806Z,175.59
2023-05-06T06:31:08.792Z,174.23
2023-05-06T06:32:08.808Z,172.48
2023-05-06T06:33:08.796Z,171.08
2023-05-06T06:34:08.783Z,172.74
2023-05-06T06:35:08.966Z,172.53
2023-05-06T06:36:08.784Z,173.40
2023-05-06T06:37:08.776Z,172.32
2023-05-06T06:38:08.778Z,171.16
2023-05-06T06:39:08.771Z,172.84
2023-05-06T06:40:08.773Z,171.49
2023-05-06T06:41:08.772Z,171.08
2023-05-06T06:42:08.766Z,172.19
2023-05-06T06:43:08.767Z,171.76
2023-05-06T06:44:08.763Z,170.60
2023-05-06T06:45:08.889Z,169.25
2023-05-06T06:46:08.796Z,168.65
2023-05-06T06:47:08.761Z,170.69
2023-05-06T06:48:08.809Z,168.63
2023-05-06T06:49:08.769Z,171.01
2023-05-06T06:50:08.783Z,172.21
2023-05-06T06:51:08.772Z,169.60
2023-05-06T06:52:08.772Z,170.46
2023-05-06T06:53:08.797Z,171.64
2023-05-06T06:54:08.793Z,171.06
2023-05-06T06:55:08.916Z,169.86
2023-05-06T06:56:08.797Z,170.83
2023-05-06T06:57:08.799Z,168.22
2023-05-06T06:58:08.798Z,168.91
2023-05-06T06:59:08.808Z,168.87
2023-05-06T07:00:08.809Z,169.97
2023-05-06T07:01:08.853Z,168.99
2023-05-06T07:02:08.791Z,168.82
2023-05-06T07:03:08.855Z,166.95
2023-05-06T07:04:08.829Z,170.19
2023-05-06T07:05:08.996Z,167.72
2023-05-06T07:06:08.832Z,167.92
2023-05-06T07:07:08.816Z,167.55
2023-05-06T07:08:08.811Z,169.14
2023-05-06T07:09:08.830Z,171.82
2023-05-06T07:10:08.833Z,168.75
2023-05-06T07:11:08.960Z,168.31
2023-05-06T07:12:08.835Z,169.56
2023-05-06T07:13:08.865Z,168.75
2023-05-06T07:14:08.858Z,168.63
2023-05-06T07:15:09.303Z,169.31
2023-05-06T07:16:08.891Z,169.22
2023-05-06T07:17:08.915Z,167.70
2023-05-06T07:18:08.926Z,167.96
2023-05-06T07:19:08.896Z,167.20
2023-05-06T07:20:08.914Z,170.05
2023-05-06T07:21:08.907Z,168.38
2023-05-06T07:22:08.909Z,169.99
2023-05-06T07:23:08.930Z,168.58
2023-05-06T07:24:08.934Z,167.87
2023-05-06T07:25:09.113Z,168.70
2023-05-06T07:26:08.943Z,170.26
2023-05-06T07:27:09.090Z,167.89
2023-05-06T07:28:08.977Z,168.18
2023-05-06T07:29:08.961Z,166.53
2023-05-06T07:30:08.979Z,168.73
2023-05-06T07:31:09.048Z,167.13
2023-05-06T07:32:09.064Z,168.23
2023-05-06T07:33:08.989Z,167.80
2023-05-06T07:34:08.979Z,169.69
2023-05-06T07:35:09.116Z,170.13
2023-05-06T07:36:08.993Z,168.88
2023-05-06T07:37:09.001Z,168.19
2023-05-06T07:38:09.023Z,168.79
2023-05-06T07:39:09.019Z,169.58
2023-05-06T07:40:09.028Z,167.08
2023-05-06T07:41:09.059Z,167.74
2023-05-06T07:42:09.028Z,167.23
2023-05-06T07:43:09.085Z,167.29
2023-05-06T07:44:09.027Z,165.97
2023-05-06T07:45:09.201Z,167.22
2023-05-06T07:46:09.096Z,168.84
2023-05-06T07:47:09.142Z,168.28
2023-05-06T07:48:09.078Z,167.35
2023-05-06T07:49:09.069Z,168.93
2023-05-06T07:50:09.090Z,169.66
2023-05-06T07:51:09.072Z,169.58
2023-05-06T07:52:09.071Z,167.33
2023-05-06T07:53:09.078Z,168.07
2023-05-06T07:54:09.068Z,168.73
2023-05-06T07:55:09.325Z,168.50
2023-05-06T07:56:09.080Z,168.26
2023-05-06T07:57:09.086Z,168.95
2023-05-06T07:58:09.082Z,168.71
2023-05-06T07:59:09.087Z,167.74
2023-05-06T08:00:09.094Z,169.01
2023-05-06T08:01:09.097Z,166.20
2023-05-06T08:02:09.117Z,168.17
2023-05-06T08:03:09.158Z,168.42
2023-05-06T08:04:09.190Z,167.56
2023-05-06T08:05:09.430Z,168.14
2023-05-06T08:06:09.128Z,167.05
2023-05-06T08:07:09.138Z,169.76
2023-05-06T08:08:09.149Z,169.16
2023-05-06T08:09:10.149Z,168.06
2023-05-06T08:10:09.172Z,170.33
2023-05-06T08:11:09.174Z,168.21
2023-05-06T08:12:09.191Z,166.88
2023-05-06T08:13:09.221Z,169.32
2023-05-06T08:14:09.207Z,167.30
2023-05-06T08:15:09.595Z,170.34
2023-05-06T08:16:09.305Z,169.12
2023-05-06T08:17:09.242Z,170.04
2023-05-06T08:18:20.889Z,169.75
2023-05-06T08:19:10.255Z,169.86
2023-05-06T08:20:09.275Z,169.77
2023-05-06T08:21:09.988Z,169.80
2023-05-06T08:22:09.264Z,170.01
2023-05-06T08:23:09.280Z,168.11
2023-05-06T08:24:09.278Z,172.10
2023-05-06T08:25:09.681Z,171.09
2023-05-06T08:26:09.300Z,168.74
2023-05-06T08:27:09.304Z,172.56
2023-05-06T08:28:09.308Z,170.45
2023-05-06T08:29:09.325Z,170.27
2023-05-06T08:30:09.331Z,170.24
2023-05-06T08:31:09.433Z,168.03
2023-05-06T08:32:09.423Z,169.47
2023-05-06T08:33:09.392Z,169.38
2023-05-06T08:34:09.356Z,172.01
2023-05-06T08:35:09.710Z,169.32
2023-05-06T08:36:09.374Z,169.85
2023-05-06T08:37:09.390Z,169.38
2023-05-06T08:38:09.395Z,170.94
2023-05-06T08:39:09.401Z,169.58
2023-05-06T08:40:09.417Z,171.67
2023-05-06T08:41:09.420Z,171.37
2023-05-06T08:42:09.433Z,168.61
2023-05-06T08:43:09.452Z,171.43
2023-05-06T08:44:09.444Z,168.48
2023-05-06T08:45:09.537Z,168.80
2023-05-06T08:46:09.554Z,170.21
2023-05-06T08:47:09.582Z,170.05
2023-05-06T08:48:09.458Z,171.57
2023-05-06T08:49:09.477Z,169.14
2023-05-06T08:50:09.462Z,169.68
2023-05-06T08:51:09.468Z,166.01
2023-05-06T08:52:09.489Z,169.00
2023-05-06T08:53:09.536Z,170.79
2023-05-06T08:54:09.555Z,169.49
2023-05-06T08:55:09.888Z,171.51
2023-05-06T08:56:09.582Z,169.80
2023-05-06T08:57:12.428Z,170.93
2023-05-06T08:58:09.613Z,171.18
2023-05-06T08:59:09.697Z,171.83
2023-05-06T09:00:09.634Z,171.75
2023-05-06T09:01:09.761Z,170.10
2023-05-06T09:02:09.703Z,171.97
2023-05-06T09:03:09.853Z,171.56
2023-05-06T09:04:09.669Z,169.80
2023-05-06T09:05:09.930Z,169.99
2023-05-06T09:06:09.706Z,172.35
2023-05-06T09:07:09.695Z,170.79
2023-05-06T09:08:09.714Z,170.11
2023-05-06T09:09:09.716Z,168.03
2023-05-06T09:10:09.875Z,169.98
2023-05-06T09:11:09.714Z,170.21
2023-05-06T09:12:09.714Z,170.67
2023-05-06T09:13:09.744Z,168.60
2023-05-06T09:14:09.730Z,170.40
2023-05-06T09:15:09.831Z,168.11
2023-05-06T09:16:09.758Z,169.37
2023-05-06T09:17:09.792Z,171.67
2023-05-06T09:18:09.821Z,170.19
2023-05-06T09:19:09.824Z,170.26
2023-05-06T09:20:09.759Z,169.67
2023-05-06T09:21:09.753Z,167.81
2023-05-06T09:22:09.773Z,171.27
2023-05-06T09:23:09.767Z,169.85
2023-05-06T09:24:09.768Z,166.94
2023-05-06T09:25:09.964Z,169.63
2023-05-06T09:26:09.782Z,170.15
2023-05-06T09:27:10.630Z,168.83
2023-05-06T09:28:09.789Z,169.62
2023-05-06T09:29:09.800Z,171.13
2023-05-06T09:30:09.794Z,166.89
2023-05-06T09:31:09.822Z,171.07
2023-05-06T09:32:09.803Z,169.74
2023-05-06T09:33:09.990Z,168.53
2023-05-06T09:34:09.828Z,170.48
2023-05-06T09:35:10.138Z,167.79
2023-05-06T09:36:09.833Z,167.77
2023-05-06T09:37:09.849Z,168.13
2023-05-06T09:38:09.859Z,168.42
2023-05-06T09:39:09.960Z,169.76
2023-05-06T09:40:09.860Z,168.74
2023-05-06T09:41:09.868Z,169.36
2023-05-06T09:42:09.865Z,167.48
2023-05-06T09:43:09.877Z,169.70
2023-05-06T09:44:09.882Z,167.47
2023-05-06T09:45:10.212Z,167.97
2023-05-06T09:46:09.890Z,167.00
2023-05-06T09:47:09.897Z,167.82
2023-05-06T09:48:10.019Z,168.34
2023-05-06T09:49:09.907Z,168.58
2023-05-06T09:50:09.942Z,169.64
2023-05-06T09:51:09.995Z,168.26
2023-05-06T09:52:09.919Z,167.04
2023-05-06T09:53:09.950Z,167.30
2023-05-06T09:54:09.937Z,165.99
2023-05-06T09:55:10.234Z,167.62
2023-05-06T09:56:09.915Z,166.14
2023-05-06T09:57:09.916Z,165.86
2023-05-06T09:58:09.925Z,166.19
2023-05-06T09:59:09.930Z,167.07
2023-05-06T10:00:09.920Z,167.00
2023-05-06T10:01:09.991Z,166.93
2023-05-06T10:02:09.986Z,167.69
2023-05-06T10:03:10.006Z,166.08
2023-05-06T10:04:10.344Z,166.05
2023-05-06T10:05:10.889Z,167.67
2023-05-06T10:06:09.955Z,167.13
2023-05-06T10:07:10.024Z,169.33
2023-05-06T10:08:09.976Z,166.05
2023-05-06T10:09:09.984Z,165.92
2023-05-06T10:10:09.993Z,166.29
2023-05-06T10:11:09.998Z,168.91
2023-05-06T10:12:10.012Z,165.62
2023-05-06T10:13:10.070Z,167.58
2023-05-06T10:14:10.089Z,167.28
2023-05-06T10:15:10.254Z,167.17
2023-05-06T10:16:10.099Z,168.64
2023-05-06T10:17:10.065Z,167.62
2023-05-06T10:18:10.138Z,168.12
2023-05-06T10:19:10.095Z,168.21
2023-05-06T10:20:10.102Z,166.92
2023-05-06T10:21:10.102Z,169.30
2023-05-06T10:22:10.095Z,167.80
2023-05-06T10:23:10.186Z,169.26
2023-05-06T10:24:10.121Z,169.35
2023-05-06T10:25:10.370Z,167.75
2023-05-06T10:26:10.123Z,166.59
2023-05-06T10:27:10.129Z,166.78
2023-05-06T10:28:16.331Z,168.85
2023-05-06T10:29:11.154Z,168.97
2023-05-06T10:30:10.173Z,169.18
2023-05-06T10:31:10.195Z,168.88
2023-05-06T10:32:10.174Z,170.56
2023-05-06T10:33:10.180Z,168.83
2023-05-06T10:34:10.192Z,169.01
2023-05-06T10:35:10.354Z,167.75
2023-05-06T10:36:10.205Z,167.85
2023-05-06T10:37:10.218Z,167.32
2023-05-06T10:38:10.204Z,167.57
2023-05-06T10:39:10.276Z,168.41
2023-05-06T10:40:10.205Z,165.53
2023-05-06T10:41:10.202Z,166.53
2023-05-06T10:42:10.210Z,167.58
2023-05-06T10:43:10.210Z,165.04
2023-05-06T10:44:10.275Z,165.99
2023-05-06T10:45:10.329Z,168.19
2023-05-06T10:46:10.321Z,166.79
2023-05-06T10:47:10.225Z,165.61
2023-05-06T10:48:10.224Z,168.21
2023-05-06T10:49:10.227Z,165.68
2023-05-06T10:50:10.261Z,165.37
2023-05-06T10:51:10.241Z,167.17
2023-05-06T10:52:10.257Z,168.21
2023-05-06T10:53:10.257Z,168.97
2023-05-06T10:54:10.257Z,165.81
2023-05-06T10:55:10.508Z,164.71
2023-05-06T10:56:10.279Z,165.56
2023-05-06T10:57:10.281Z,167.36
2023-05-06T10:58:10.319Z,167.87
2023-05-06T10:59:10.323Z,169.18
2023-05-06T11:00:10.348Z,166.13
2023-05-06T11:01:10.391Z,167.02
2023-05-06T11:02:10.353Z,165.56
2023-05-06T11:03:10.374Z,167.59
2023-05-06T11:04:10.340Z,167.11
2023-05-06T11:05:10.454Z,166.51
2023-05-06T11:06:10.328Z,164.10
2023-05-06T11:07:10.335Z,165.21
2023-05-06T11:08:10.343Z,163.62
2023-05-06T11:09:10.352Z,167.68
2023-05-06T11:10:10.364Z,166.77
2023-05-06T11:11:10.377Z,167.01
2023-05-06T11:12:10.370Z,165.47
2023-05-06T11:13:10.401Z,165.61
2023-05-06T11:14:10.356Z,166.96
2023-05-06T11:15:10.572Z,165.77
2023-05-06T11:16:10.401Z,165.19
2023-05-06T11:17:10.420Z,166.48
2023-05-06T11:18:10.409Z,164.57
2023-05-06T11:19:10.420Z,165.63
2023-05-06T11:20:10.671Z,164.83
2023-05-06T11:21:10.461Z,163.93
2023-05-06T11:22:10.462Z,165.60
2023-05-06T11:23:10.466Z,165.69
2023-05-06T11:24:10.480Z,164.99
2023-05-06T11:25:10.507Z,165.45
2023-05-06T11:26:10.521Z,166.01
2023-05-06T11:27:10.646Z,162.59
2023-05-06T11:28:10.520Z,163.49
2023-05-06T11:29:10.540Z,163.12
2023-05-06T11:30:10.731Z,164.45
2023-05-06T11:31:10.627Z,162.53
2023-05-06T11:32:10.556Z,165.40
2023-05-06T11:33:10.661Z,164.47
2023-05-06T11:34:10.592Z,162.28
2023-05-06T11:35:10.594Z,162.61
2023-05-06T11:36:10.599Z,165.11
2023-05-06T11:37:10.638Z,160.86
2023-05-06T11:38:10.665Z,163.36
2023-05-06T11:39:10.625Z,162.40
2023-05-06T11:40:10.925Z,162.18
2023-05-06T11:41:10.650Z,162.46
2023-05-06T11:42:10.653Z,164.33
2023-05-06T11:43:10.734Z,162.26
2023-05-06T11:44:11.650Z,163.24
2023-05-06T11:45:10.683Z,163.85
2023-05-06T11:46:10.750Z,163.94
2023-05-06T11:47:10.693Z,163.65
2023-05-06T11:48:10.700Z,165.33
2023-05-06T11:49:10.710Z,163.89
2023-05-06T11:50:10.854Z,167.01
2023-05-06T11:51:10.741Z,165.35
2023-05-06T11:52:10.834Z,164.57
2023-05-06T11:53:10.754Z,166.46
2023-05-06T11:54:10.788Z,163.16
2023-05-06T11:55:10.802Z,165.21
2023-05-06T11:56:10.812Z,163.76
2023-05-06T11:57:10.817Z,164.95
2023-05-06T11:58:10.831Z,161.23
2023-05-06T11:59:10.907Z,164.92
2023-05-06T12:00:11.067Z,163.71
2023-05-06T12:01:10.861Z,161.00
2023-05-06T12:02:10.882Z,160.89
2023-05-06T12:03:10.943Z,163.54
2023-05-06T12:04:10.987Z,161.69
2023-05-06T12:05:10.903Z,164.57
2023-05-06T12:06:10.915Z,163.86
2023-05-06T12:07:10.945Z,163.03
2023-05-06T12:08:23.491Z,161.48
2023-05-06T12:09:11.950Z,161.64
2023-05-06T12:10:11.166Z,162.13
2023-05-06T12:11:10.929Z,162.86
2023-05-06T12:12:10.929Z,162.31
2023-05-06T12:13:10.960Z,162.48
2023-05-06T12:14:10.951Z,162.28
2023-05-06T12:15:11.015Z,164.27
2023-05-06T12:16:10.973Z,163.10
2023-05-06T12:17:10.955Z,165.65
2023-05-06T12:18:10.960Z,165.50
2023-05-06T12:19:10.970Z,164.60
2023-05-06T12:20:11.259Z,163.83
2023-05-06T12:21:10.974Z,164.83
2023-05-06T12:22:10.992Z,163.00
2023-05-06T12:23:11.011Z,163.10
2023-05-06T12:24:11.051Z,164.74
2023-05-06T12:25:11.104Z,164.09
2023-05-06T12:26:11.028Z,164.29
2023-05-06T12:27:11.028Z,164.72
2023-05-06T12:28:11.030Z,163.13